NCAR-RAP Real-Time Weather Data

Output produced by METARs form (23 June 2021  09:11 UTC)
found at http://weather.rap.ucar.edu/surface/
 
CYKJ 230800Z AUTO 32008G15KT 9SM FEW017 SCT031 12/10 A2941 RMK SLP964 DENSITY ALT 2400FT
CYKJ 230715Z AUTO 34012G21KT 9SM SCT016 BKN037 13/10 A2939 RMK SLP964 DENSITY ALT 2500FT
CYKJ 230700Z AUTO 33011G17KT 9SM OVC016 14/11 A2938 RMK SLP955 DENSITY ALT 2600FT
CYKJ 230635Z AUTO 31009G15KT 9SM BKN018 BKN028 OVC037 14/13 A2936 RMK SLP955 DENSITY ALT 2700FT
CYKJ 230633Z AUTO 31010G15KT 9SM SCT018 BKN028 OVC037 14/13 A2936 RMK SLP955 DENSITY ALT 2700FT
CYKJ 230631Z AUTO 32009KT 9SM BKN018 BKN025 OVC037 14/13 A2936 RMK SLP955 DENSITY ALT 2700FT
CYKJ 230600Z AUTO 29008KT 9SM CLR 14/13 A2936 RMK SLP949 DENSITY ALT 2600FT
CYKJ 230500Z AUTO 27005KT 9SM FEW033 BKN071 OVC094 14/14 A2936 RMK SLP949 DENSITY ALT 2600FT
CYKJ 230444Z AUTO 25005KT 9SM FEW032 SCT048 OVC071 14/ A2935 RMK TD MISG SLP951 DENSITY ALT 2600FT
CYKJ 230413Z AUTO 25005KT 9SM -RA BKN034 BKN110 14/ A2936 RMK TD MISG SLP953 DENSITY ALT 2600FT
CYKJ 230400Z AUTO 24003KT 9SM FEW034 SCT110 14/ A2935 RMK TD MISG SLP948 DENSITY ALT 2700FT
CYKJ 230300Z AUTO 25003KT 9SM CLR 14/12 A2935 RMK SLP950 DENSITY ALT 2700FT
CYKJ 230200Z AUTO VRB02KT 9SM CLR 16/12 A2933 RMK SLP943 DENSITY ALT 2900FT
CYKJ 230100Z AUTO 35006KT 9SM 16/14 A2933 RMK CLD MISG SLP942 DENSITY ALT 3000FT
CYKJ 230000Z AUTO 05004KT 9SM FEW006 BKN100 16/15 A2933 RMK SLP943 DENSITY ALT 2900FT
CYKJ 222327Z AUTO 05005KT 9SM BKN086 BKN110 15/ A2933 RMK TD MISG SLP943 DENSITY ALT 2800FT
CYKJ 222315Z AUTO 04004KT 360V060 9SM -RA FEW055 BKN086 15/ A2934 RMK TD MISG SLP945 DENSITY ALT 2800FT
CYKJ 222311Z AUTO 03005KT 350V050 9SM FEW055 SCT075 BKN088 15/ A2934 RMK TD MISG SLP945 DENSITY ALT 2800FT
CYKJ 222300Z AUTO 02006KT 340V070 9SM -RA BKN055 BKN074 BKN093 15/ A2934 RMK LTNG DIST E SE TD MISG SLP949 DENSITY ALT 2800FT
CYKJ 222244Z AUTO 35008G16KT 6SM RA BKN060 OVC077 15/ A2935 RMK LTNG DIST ALQDS TD MISG SLP950 DENSITY ALT 2700FT
CYKJ 222228Z AUTO 32012G27KT 6SM -RA VCTS FEW055 BKN075 OVC086 15/ A2936 RMK LTNG DIST NE S PRESRR TD MISG SLP954 DENSITY ALT 2800FT
CYKJ 222218Z AUTO 31019G40KT 3SM RA BR FEW050 BKN066 BKN078 OVC090 16/14 A2936 RMK LTNG DIST SW PRESRR SLP951 DENSITY ALT 2900FT
CYKJ 222212Z AUTO 29028G40KT 210V300 2 1/2SM -RA FEW050 SCT066 BKN078 OVC090 19/13 A2933 RMK LTNG DIST N SW PRESRR SLP939 DENSITY ALT 3200FT
CYKJ 222208Z AUTO 26028G38KT 210V290 3SM HZ FEW055 SCT078 BKN090 BKN120 23/11 A2931 RMK LTNG DIST N SW PRESRR SLP925 DENSITY ALT 3700FT
CYKJ 222207Z AUTO 25028G38KT 210V290 6SM HZ SCT076 BKN090 BKN120 24/10 A2929 RMK LTNG DIST N SW SLP920 DENSITY ALT 3900FT
CYKJ 222200Z AUTO 24015G21KT 9SM SCT076 BKN088 BKN110 BKN150 25/08 A2928 RMK LTNG DIST N SW SLP922 DENSITY ALT 4000FT